createdAt,value
2018-03-22T00:01:05.864Z,11.83
2018-03-22T00:03:33.904Z,10.60
2018-03-22T00:06:01.849Z,10.80
2018-03-22T00:08:29.741Z,12.57
2018-03-22T00:10:57.759Z,12.80
2018-03-22T00:13:25.515Z,12.87
2018-03-22T00:15:53.262Z,12.90
2018-03-22T00:18:21.420Z,13.73
2018-03-22T00:20:49.252Z,12.23
2018-03-22T00:23:17.009Z,13.67
2018-03-22T00:25:45.024Z,14.33
2018-03-22T00:28:12.983Z,14.57
2018-03-22T00:33:14.813Z,14.03
2018-03-22T00:35:42.584Z,13.17
2018-03-22T00:40:44.633Z,13.07
2018-03-22T00:43:12.567Z,13.70
2018-03-22T00:45:40.313Z,14.10
2018-03-22T00:48:08.106Z,12.97
2018-03-22T00:50:36.411Z,12.40
2018-03-22T00:53:04.157Z,12.67
2018-03-22T00:55:32.110Z,12.37
2018-03-22T00:58:00.207Z,12.90
2018-03-22T01:00:28.273Z,12.83
2018-03-22T01:02:56.238Z,12.23
2018-03-22T01:05:23.990Z,12.57
2018-03-22T01:07:51.857Z,13.20
2018-03-22T01:10:19.614Z,12.13
2018-03-22T01:12:47.448Z,13.37
2018-03-22T01:15:15.201Z,12.80
2018-03-22T01:17:42.972Z,14.30
2018-03-22T01:20:10.726Z,14.83
2018-03-22T01:22:38.500Z,13.60
2018-03-22T01:25:06.266Z,14.17
2018-03-22T01:27:34.017Z,13.53
2018-03-22T01:30:01.846Z,13.70
2018-03-22T01:32:29.611Z,14.10
2018-03-22T01:34:57.453Z,14.63
2018-03-22T01:37:25.195Z,15.30
2018-03-22T01:39:52.958Z,14.37
2018-03-22T01:42:20.945Z,14.30
2018-03-22T01:44:48.692Z,14.00
2018-03-22T01:47:16.460Z,15.90
2018-03-22T01:49:44.224Z,14.57
2018-03-22T01:52:12.042Z,13.07
2018-03-22T01:54:39.843Z,14.00
2018-03-22T01:57:07.677Z,13.60
2018-03-22T01:59:35.419Z,14.30
2018-03-22T02:02:03.367Z,13.27
2018-03-22T02:04:31.297Z,13.53
2018-03-22T02:06:59.052Z,13.83
2018-03-22T02:09:26.808Z,12.40
2018-03-22T02:11:54.550Z,13.20
2018-03-22T02:14:22.412Z,13.40
2018-03-22T02:16:50.216Z,13.10
2018-03-22T02:19:17.961Z,12.13
2018-03-22T02:21:45.719Z,12.77
2018-03-22T02:24:13.505Z,11.83
2018-03-22T02:26:41.326Z,12.57
2018-03-22T02:29:09.073Z,12.10
2018-03-22T02:31:36.856Z,13.13
2018-03-22T02:34:04.607Z,13.50
2018-03-22T02:36:32.360Z,14.07
2018-03-22T02:39:00.131Z,12.30
2018-03-22T02:41:27.882Z,14.63
2018-03-22T02:43:55.641Z,12.70
2018-03-22T02:46:23.431Z,13.57
2018-03-22T02:48:51.265Z,14.30
2018-03-22T02:51:19.028Z,13.70
2018-03-22T02:53:46.922Z,13.00
2018-03-22T02:56:14.741Z,13.60
2018-03-22T02:58:42.505Z,12.40
2018-03-22T03:01:10.460Z,13.00
2018-03-22T03:03:38.216Z,12.40
2018-03-22T03:06:06.052Z,13.20
2018-03-22T03:08:33.857Z,13.07
2018-03-22T03:11:01.673Z,12.93
2018-03-22T03:13:29.496Z,12.97
2018-03-22T03:15:57.270Z,12.80
2018-03-22T03:18:25.007Z,14.03
2018-03-22T03:20:52.932Z,14.17
2018-03-22T03:23:20.840Z,13.90
2018-03-22T03:25:48.657Z,13.53
2018-03-22T03:28:16.485Z,14.03
2018-03-22T03:30:44.375Z,13.37
2018-03-22T03:33:12.392Z,13.33
2018-03-22T03:35:40.145Z,12.93
2018-03-22T03:38:08.046Z,15.03
2018-03-22T03:40:35.792Z,13.33
2018-03-22T03:43:03.537Z,13.27
2018-03-22T03:45:31.338Z,13.57
2018-03-22T03:47:59.193Z,13.57
2018-03-22T03:50:27.844Z,15.10
2018-03-22T03:52:55.809Z,12.93
2018-03-22T03:55:23.590Z,14.90
2018-03-22T03:57:51.340Z,14.03
2018-03-22T04:00:19.215Z,14.07
2018-03-22T04:02:46.963Z,14.00
2018-03-22T04:05:14.710Z,16.10
2018-03-22T04:07:42.511Z,13.83
2018-03-22T04:10:10.304Z,14.90
2018-03-22T04:12:38.170Z,14.73
2018-03-22T04:15:05.954Z,15.90
2018-03-22T04:17:33.712Z,15.10
2018-03-22T04:20:01.574Z,15.80
2018-03-22T04:22:29.350Z,14.30
2018-03-22T04:24:57.097Z,15.93
2018-03-22T04:27:24.845Z,16.10
2018-03-22T04:29:52.682Z,15.50
2018-03-22T04:32:20.452Z,15.80
2018-03-22T04:34:48.355Z,16.50
2018-03-22T04:37:16.253Z,16.87
2018-03-22T04:39:44.086Z,16.37
2018-03-22T04:42:11.976Z,15.60
2018-03-22T04:44:39.915Z,15.97
2018-03-22T04:47:07.920Z,14.50
2018-03-22T04:49:36.087Z,15.57
2018-03-22T04:52:03.951Z,16.17
2018-03-22T04:54:31.752Z,15.80
2018-03-22T04:56:59.504Z,16.17
2018-03-22T04:59:27.331Z,15.83
2018-03-22T05:01:55.081Z,16.30
2018-03-22T05:04:22.825Z,17.50
2018-03-22T05:06:50.593Z,16.97
2018-03-22T05:09:18.531Z,15.73
2018-03-22T05:11:46.407Z,16.17
2018-03-22T05:14:14.292Z,15.93
2018-03-22T05:16:42.164Z,15.97
2018-03-22T05:19:09.918Z,16.93
2018-03-22T05:21:37.782Z,17.70
2018-03-22T05:24:05.616Z,16.60
2018-03-22T05:26:33.424Z,16.70
2018-03-22T05:29:01.288Z,17.10
2018-03-22T05:31:29.045Z,20.10
2018-03-22T05:33:57.116Z,18.27
2018-03-22T05:36:25.202Z,17.93
2018-03-22T05:38:53.184Z,18.10
2018-03-22T05:41:21.641Z,16.43
2018-03-22T05:43:49.437Z,18.90
2018-03-22T05:46:17.185Z,18.73
2018-03-22T05:48:45.031Z,19.17
2018-03-22T05:51:12.903Z,20.30
2018-03-22T05:53:40.763Z,20.23
2018-03-22T05:56:08.511Z,20.20
2018-03-22T05:58:36.283Z,22.07
2018-03-22T06:01:04.143Z,20.80
2018-03-22T06:03:31.939Z,22.30
2018-03-22T06:05:59.843Z,22.83
2018-03-22T06:08:27.689Z,19.90
2018-03-22T06:10:55.436Z,20.73
2018-03-22T06:13:23.254Z,21.00
2018-03-22T06:15:51.128Z,21.83
2018-03-22T06:18:18.869Z,22.40
2018-03-22T06:20:46.752Z,22.60
2018-03-22T06:23:14.559Z,19.57
2018-03-22T06:25:42.357Z,20.47
2018-03-22T06:28:10.235Z,18.33
2018-03-22T06:30:38.050Z,21.33
2018-03-22T06:33:05.986Z,20.50
2018-03-22T06:35:33.745Z,18.67
2018-03-22T06:38:01.677Z,21.37
2018-03-22T06:40:29.505Z,21.10
2018-03-22T06:42:57.268Z,21.73
2018-03-22T06:45:25.026Z,21.93
2018-03-22T06:47:52.775Z,22.00
2018-03-22T06:50:20.538Z,24.87
2018-03-22T06:52:48.276Z,22.93
2018-03-22T06:55:16.024Z,24.90
2018-03-22T06:57:44.031Z,25.17
2018-03-22T07:00:11.772Z,25.70
2018-03-22T07:02:39.542Z,26.20
2018-03-22T07:05:07.314Z,25.20
2018-03-22T07:10:08.999Z,23.27
2018-03-22T07:12:36.774Z,26.03
2018-03-22T07:15:04.536Z,24.37
2018-03-22T07:17:32.331Z,25.53
2018-03-22T07:20:00.076Z,25.40
2018-03-22T07:22:27.826Z,24.33
2018-03-22T07:24:55.704Z,24.87
2018-03-22T07:27:23.768Z,24.97
2018-03-22T07:29:51.800Z,27.17
2018-03-22T07:32:19.589Z,26.73
2018-03-22T07:34:47.363Z,28.90
2018-03-22T07:37:15.400Z,28.70
2018-03-22T07:39:43.287Z,31.10
2018-03-22T07:42:11.216Z,30.33
2018-03-22T07:44:41.095Z,29.13
2018-03-22T07:47:08.983Z,28.73
2018-03-22T07:49:36.796Z,28.00
2018-03-22T07:52:05.154Z,28.83
2018-03-22T07:54:32.936Z,29.23
2018-03-22T07:57:00.784Z,28.73
2018-03-22T07:59:28.607Z,28.40
2018-03-22T08:01:56.410Z,26.20
2018-03-22T08:04:24.232Z,26.40
2018-03-22T08:06:51.970Z,23.33
2018-03-22T08:09:20.053Z,24.27
2018-03-22T08:11:47.821Z,23.33
2018-03-22T08:14:15.846Z,24.80
2018-03-22T08:16:43.679Z,23.63
2018-03-22T08:19:11.541Z,22.50
2018-03-22T08:21:39.371Z,22.43
2018-03-22T08:24:07.393Z,21.20
2018-03-22T08:26:35.163Z,22.47
2018-03-22T08:29:02.996Z,19.53
2018-03-22T08:31:30.812Z,22.80
2018-03-22T08:33:58.715Z,23.10
2018-03-22T08:36:26.502Z,19.60
2018-03-22T08:38:54.491Z,22.10
2018-03-22T08:41:22.552Z,21.50
2018-03-22T08:43:50.311Z,20.80
2018-03-22T08:46:18.072Z,21.83
2018-03-22T08:48:45.996Z,21.77
2018-03-22T08:51:13.912Z,22.03
2018-03-22T08:53:41.606Z,23.63
2018-03-22T08:56:09.412Z,23.27
2018-03-22T08:58:37.090Z,23.37
2018-03-22T09:01:04.788Z,22.20
2018-03-22T09:03:32.450Z,24.07
2018-03-22T09:06:00.132Z,26.30
2018-03-22T09:08:27.848Z,25.10
2018-03-22T09:10:55.577Z,26.30
2018-03-22T09:13:23.365Z,27.93
2018-03-22T09:15:51.045Z,26.70
2018-03-22T09:18:18.764Z,30.30
2018-03-22T09:20:46.426Z,29.97
2018-03-22T09:23:14.194Z,28.53
2018-03-22T09:25:41.840Z,28.60
2018-03-22T09:28:09.491Z,30.60
2018-03-22T09:30:37.254Z,30.30
2018-03-22T09:33:05.137Z,30.60
2018-03-22T09:35:32.807Z,31.83
2018-03-22T09:38:00.614Z,28.23
2018-03-22T09:40:28.318Z,29.17
2018-03-22T09:42:56.204Z,32.03
2018-03-22T09:45:24.796Z,33.17
2018-03-22T09:47:52.591Z,32.13
2018-03-22T09:50:20.255Z,33.50
2018-03-22T09:52:48.058Z,35.07
2018-03-22T09:55:15.821Z,35.70
2018-03-22T09:57:43.728Z,39.10
2018-03-22T10:00:11.415Z,39.60
2018-03-22T10:02:39.094Z,41.90
2018-03-22T10:05:06.774Z,40.87
2018-03-22T10:07:34.460Z,43.40
2018-03-22T10:10:02.252Z,41.70
2018-03-22T10:12:29.915Z,42.40
2018-03-22T10:14:58.085Z,43.63
2018-03-22T10:17:25.760Z,43.53
2018-03-22T10:19:53.601Z,42.93
2018-03-22T10:22:21.660Z,46.47
2018-03-22T10:24:49.385Z,45.57
2018-03-22T10:27:17.591Z,47.17
2018-03-22T10:29:45.268Z,44.37
2018-03-22T10:32:12.949Z,48.87
2018-03-22T10:34:40.638Z,43.40
2018-03-22T10:37:08.607Z,44.30
2018-03-22T10:39:36.282Z,44.47
2018-03-22T10:42:04.192Z,46.70
2018-03-22T10:44:31.901Z,46.17
2018-03-22T10:46:59.662Z,46.63
2018-03-22T10:49:27.338Z,48.10
2018-03-22T10:51:55.436Z,48.80
2018-03-22T10:54:23.286Z,51.07
2018-03-22T10:56:51.312Z,46.57
2018-03-22T10:59:18.999Z,46.50
2018-03-22T11:01:52.374Z,45.00
2018-03-22T11:04:20.816Z,44.67
2018-03-22T11:06:48.481Z,45.90
2018-03-22T11:09:16.133Z,44.03
2018-03-22T11:11:43.828Z,43.83
2018-03-22T11:14:11.669Z,45.33
2018-03-22T11:16:39.323Z,48.27
2018-03-22T11:19:07.019Z,48.27
2018-03-22T11:21:34.677Z,48.80
2018-03-22T11:24:02.349Z,48.90
2018-03-22T11:26:30.025Z,47.67
2018-03-22T11:28:57.716Z,48.57
2018-03-22T11:31:25.505Z,49.13
2018-03-22T11:33:53.180Z,45.90
2018-03-22T11:36:20.987Z,47.60
2018-03-22T11:38:48.803Z,48.60
2018-03-22T11:41:16.637Z,50.30
2018-03-22T11:43:44.705Z,47.73
2018-03-22T11:46:12.503Z,49.00
2018-03-22T11:48:40.188Z,47.80
2018-03-22T11:51:07.856Z,50.93
2018-03-22T11:53:35.519Z,48.87
2018-03-22T11:56:03.209Z,51.80
2018-03-22T11:58:30.881Z,50.37
2018-03-22T12:00:58.543Z,51.00
2018-03-22T12:03:26.224Z,53.70
2018-03-22T12:05:53.892Z,52.23
2018-03-22T12:08:21.651Z,50.70
2018-03-22T12:10:49.327Z,49.00
2018-03-22T12:13:17.561Z,47.60
2018-03-22T12:15:51.048Z,48.47
2018-03-22T12:18:18.710Z,46.60
2018-03-22T12:20:46.460Z,45.93
2018-03-22T12:23:14.138Z,47.43
2018-03-22T12:25:41.841Z,47.43
2018-03-22T12:28:09.725Z,49.93
2018-03-22T12:30:37.507Z,49.20
2018-03-22T12:33:05.173Z,45.50
2018-03-22T12:35:32.849Z,44.87
2018-03-22T12:38:00.527Z,45.57
2018-03-22T12:40:28.195Z,44.83
2018-03-22T12:42:55.856Z,45.20
2018-03-22T12:45:23.536Z,44.93
2018-03-22T12:47:51.220Z,45.50
2018-03-22T12:50:18.881Z,43.30
2018-03-22T12:52:46.563Z,44.20
2018-03-22T12:55:14.270Z,45.40
2018-03-22T12:57:41.951Z,44.10
2018-03-22T13:00:09.628Z,43.47
2018-03-22T13:02:37.514Z,42.20
2018-03-22T13:05:05.184Z,44.30
2018-03-22T13:07:32.864Z,40.97
2018-03-22T13:10:00.537Z,38.70
2018-03-22T13:12:28.197Z,40.20
2018-03-22T13:14:55.888Z,41.60
2018-03-22T13:17:23.541Z,42.47
2018-03-22T13:19:51.224Z,42.23
2018-03-22T13:22:18.896Z,42.47
2018-03-22T13:24:46.561Z,40.93
2018-03-22T13:27:14.224Z,42.07
2018-03-22T13:29:41.896Z,41.47
2018-03-22T13:32:09.556Z,41.33
2018-03-22T13:34:37.208Z,41.30
2018-03-22T13:37:04.884Z,39.47
2018-03-22T13:39:32.559Z,41.13
2018-03-22T13:42:00.228Z,39.90
2018-03-22T13:44:27.907Z,40.43
2018-03-22T13:46:55.575Z,38.43
2018-03-22T13:49:23.263Z,39.23
2018-03-22T13:51:50.949Z,35.87
2018-03-22T13:54:18.599Z,34.77
2018-03-22T13:56:46.265Z,35.07
2018-03-22T13:59:13.940Z,35.20
2018-03-22T14:01:41.608Z,35.33
2018-03-22T14:04:09.272Z,34.83
2018-03-22T14:06:36.957Z,34.67
2018-03-22T14:09:04.627Z,35.70
2018-03-22T14:11:32.284Z,34.00
2018-03-22T14:13:59.968Z,33.17
2018-03-22T14:16:27.658Z,32.97
2018-03-22T14:18:55.312Z,32.70
2018-03-22T14:21:22.993Z,32.73
2018-03-22T14:23:50.772Z,37.10
2018-03-22T14:26:18.428Z,35.40
2018-03-22T14:28:47.134Z,34.53
2018-03-22T14:31:14.792Z,33.10
2018-03-22T14:33:42.593Z,34.57
2018-03-22T14:36:10.302Z,35.47
2018-03-22T14:38:38.081Z,36.07
2018-03-22T14:41:05.729Z,33.03
2018-03-22T14:43:33.404Z,33.57
2018-03-22T14:46:01.055Z,32.00
2018-03-22T14:48:28.716Z,34.37
2018-03-22T14:50:56.392Z,32.50
2018-03-22T14:53:24.066Z,33.77
2018-03-22T14:55:51.839Z,32.90
2018-03-22T14:58:19.529Z,32.10
2018-03-22T15:00:47.215Z,32.07
2018-03-22T15:03:14.877Z,32.27
2018-03-22T15:05:42.558Z,34.23
2018-03-22T15:08:10.218Z,32.57
2018-03-22T15:10:37.891Z,32.77
2018-03-22T15:13:05.655Z,34.60
2018-03-22T15:15:33.320Z,32.37
2018-03-22T15:18:01.018Z,35.40
2018-03-22T15:20:28.733Z,32.50
2018-03-22T15:22:56.420Z,33.53
2018-03-22T15:25:24.253Z,33.23
2018-03-22T15:27:51.931Z,31.23
2018-03-22T15:30:19.631Z,33.53
2018-03-22T15:32:47.378Z,33.53
2018-03-22T15:35:15.288Z,32.87
2018-03-22T15:37:43.022Z,31.77
2018-03-22T15:40:10.679Z,34.40
2018-03-22T15:42:38.365Z,29.93
2018-03-22T15:45:06.025Z,32.97
2018-03-22T15:47:34.243Z,33.10
2018-03-22T15:50:02.060Z,33.17
2018-03-22T15:52:29.755Z,33.57
2018-03-22T15:54:57.423Z,32.37
2018-03-22T15:57:25.231Z,32.40
2018-03-22T15:59:53.009Z,31.63
2018-03-22T16:02:20.674Z,32.63
2018-03-22T16:04:48.358Z,33.23
2018-03-22T16:07:16.017Z,31.80
2018-03-22T16:09:43.668Z,32.27
2018-03-22T16:12:11.348Z,32.40
2018-03-22T16:14:39.006Z,33.10
2018-03-22T16:17:06.660Z,33.53
2018-03-22T16:19:34.462Z,33.03
2018-03-22T16:22:02.217Z,32.60
2018-03-22T16:24:29.932Z,33.63
2018-03-22T16:26:57.628Z,35.17
2018-03-22T16:29:25.296Z,34.13
2018-03-22T16:31:52.982Z,36.03
2018-03-22T16:34:20.677Z,32.53
2018-03-22T16:36:48.363Z,32.30
2018-03-22T16:39:16.027Z,33.10
2018-03-22T16:41:43.772Z,34.37
2018-03-22T16:44:11.437Z,37.17
2018-03-22T16:46:39.245Z,36.17
2018-03-22T16:49:06.943Z,36.40
2018-03-22T16:51:34.633Z,38.23
2018-03-22T16:54:02.448Z,37.63
2018-03-22T16:56:30.243Z,36.00
2018-03-22T16:58:57.911Z,37.77
2018-03-22T17:01:25.671Z,37.30
2018-03-22T17:03:53.357Z,37.57
2018-03-22T17:06:22.630Z,37.10
2018-03-22T17:08:50.406Z,36.93
2018-03-22T17:11:18.221Z,34.93
2018-03-22T17:13:45.911Z,36.83
2018-03-22T17:16:13.794Z,37.80
2018-03-22T17:18:41.482Z,36.50
2018-03-22T17:21:09.307Z,36.40
2018-03-22T17:23:37.074Z,34.83
2018-03-22T17:26:04.891Z,38.03
2018-03-22T17:28:32.555Z,38.10
2018-03-22T17:31:00.801Z,39.37
2018-03-22T17:33:28.484Z,40.87
2018-03-22T17:35:56.237Z,40.20
2018-03-22T17:38:23.892Z,42.17
2018-03-22T17:40:52.319Z,39.80
2018-03-22T17:43:19.981Z,43.07
2018-03-22T17:45:47.648Z,39.83
2018-03-22T17:48:15.540Z,40.73
2018-03-22T17:50:43.191Z,41.50
2018-03-22T17:53:10.849Z,41.20
2018-03-22T17:55:38.541Z,42.70
2018-03-22T17:58:06.320Z,41.77
2018-03-22T18:00:34.085Z,43.90
2018-03-22T18:03:01.873Z,44.93
2018-03-22T18:05:29.544Z,44.30
2018-03-22T18:07:57.414Z,43.50
2018-03-22T18:10:25.288Z,42.87
2018-03-22T18:12:53.013Z,44.47
2018-03-22T18:15:20.841Z,42.13
2018-03-22T18:17:48.808Z,44.10
2018-03-22T18:20:16.571Z,44.17
2018-03-22T18:22:44.501Z,41.77
2018-03-22T18:25:12.263Z,41.87
2018-03-22T18:27:40.232Z,42.37
2018-03-22T18:30:07.924Z,44.07
2018-03-22T18:32:35.724Z,43.90
2018-03-22T18:35:03.383Z,41.27
2018-03-22T18:37:31.101Z,45.33
2018-03-22T18:39:58.776Z,43.77
2018-03-22T18:42:26.479Z,42.57
2018-03-22T18:44:54.299Z,43.77
2018-03-22T18:47:22.033Z,44.10
2018-03-22T18:49:49.688Z,45.73
2018-03-22T18:52:17.442Z,43.93
2018-03-22T18:54:45.206Z,44.13
2018-03-22T18:57:12.945Z,47.43
2018-03-22T18:59:40.609Z,46.90
2018-03-22T19:02:08.294Z,45.87
2018-03-22T19:04:35.958Z,43.27
2018-03-22T19:07:03.896Z,45.93
2018-03-22T19:09:31.615Z,45.77
2018-03-22T19:11:59.576Z,47.33
2018-03-22T19:14:27.270Z,47.67
2018-03-22T19:16:54.961Z,49.13
2018-03-22T19:19:22.668Z,53.20
2018-03-22T19:21:51.266Z,51.47
2018-03-22T19:24:18.967Z,51.13
2018-03-22T19:26:46.624Z,49.77
2018-03-22T19:29:14.437Z,48.83
2018-03-22T19:31:42.166Z,45.07
2018-03-22T19:34:09.890Z,44.57
2018-03-22T19:36:37.549Z,45.40
2018-03-22T19:39:05.286Z,45.90
2018-03-22T19:41:32.944Z,44.57
2018-03-22T19:44:00.601Z,44.50
2018-03-22T19:46:28.508Z,44.63
2018-03-22T19:48:56.311Z,45.97
2018-03-22T19:51:23.976Z,45.60
2018-03-22T19:53:52.425Z,47.67
2018-03-22T19:56:20.193Z,47.77
2018-03-22T19:58:48.116Z,49.13
2018-03-22T20:01:15.813Z,50.00
2018-03-22T20:03:43.738Z,49.73
2018-03-22T20:06:11.448Z,50.90
2018-03-22T20:08:39.268Z,49.67
2018-03-22T20:11:06.949Z,52.03
2018-03-22T20:13:34.621Z,51.77
2018-03-22T20:16:02.559Z,51.57
2018-03-22T20:18:30.224Z,52.03
2018-03-22T20:20:58.028Z,51.37
2018-03-22T20:23:25.772Z,50.80
2018-03-22T20:25:53.449Z,52.47
2018-03-22T20:28:21.807Z,49.27
2018-03-22T20:30:49.483Z,52.47
2018-03-22T20:33:17.157Z,50.80
2018-03-22T20:35:44.819Z,52.17
2018-03-22T20:38:12.717Z,47.30
2018-03-22T20:40:40.417Z,55.20
2018-03-22T20:43:08.162Z,51.80
2018-03-22T20:45:35.892Z,54.80
2018-03-22T20:48:03.662Z,55.50
2018-03-22T20:50:31.494Z,55.40
2018-03-22T20:52:59.325Z,55.77
2018-03-22T20:55:27.020Z,53.20
2018-03-22T20:57:54.692Z,51.60
2018-03-22T21:00:22.380Z,52.87
2018-03-22T21:02:50.037Z,57.00
2018-03-22T21:05:17.841Z,55.90
2018-03-22T21:07:45.625Z,52.13
2018-03-22T21:10:13.358Z,53.60
2018-03-22T21:12:41.026Z,56.57
2018-03-22T21:15:08.705Z,53.13
2018-03-22T21:17:36.375Z,46.50
2018-03-22T21:20:04.060Z,49.37
2018-03-22T21:22:31.768Z,47.43
2018-03-22T21:24:59.575Z,48.93
2018-03-22T21:27:27.317Z,45.50
2018-03-22T21:29:55.004Z,49.40
2018-03-22T21:32:22.664Z,45.83
2018-03-22T21:34:50.584Z,45.27
2018-03-22T21:37:18.547Z,43.90
2018-03-22T21:39:46.232Z,44.63
2018-03-22T21:42:13.889Z,41.63
2018-03-22T21:44:41.653Z,41.87
2018-03-22T21:47:21.043Z,42.40
2018-03-22T21:49:48.725Z,41.50
2018-03-22T21:52:28.101Z,42.93
2018-03-22T21:54:56.152Z,43.90
2018-03-22T21:57:23.832Z,41.80
2018-03-22T21:59:51.655Z,43.80
2018-03-22T22:02:19.337Z,42.33
2018-03-22T22:04:47.012Z,45.67
2018-03-22T22:07:14.924Z,42.43
2018-03-22T22:09:42.675Z,47.20
2018-03-22T22:12:10.482Z,43.50
2018-03-22T22:14:38.148Z,45.57
2018-03-22T22:17:05.878Z,45.83
2018-03-22T22:19:33.543Z,45.67
2018-03-22T22:22:01.204Z,42.07
2018-03-22T22:24:29.312Z,43.90
2018-03-22T22:26:57.156Z,41.30
2018-03-22T22:29:24.937Z,43.33
2018-03-22T22:31:52.641Z,39.77
2018-03-22T22:34:20.334Z,43.00
2018-03-22T22:36:48.165Z,42.07
2018-03-22T22:39:15.905Z,41.90
2018-03-22T22:41:43.835Z,43.90
2018-03-22T22:44:11.495Z,40.70
2018-03-22T22:46:39.446Z,41.13
2018-03-22T22:49:07.115Z,39.30
2018-03-22T22:51:34.819Z,43.77
2018-03-22T22:54:02.606Z,41.80
2018-03-22T22:56:30.720Z,42.13
2018-03-22T22:58:58.398Z,40.67
2018-03-22T23:01:26.426Z,39.20
2018-03-22T23:03:54.188Z,38.30
2018-03-22T23:06:21.841Z,37.77
2018-03-22T23:08:49.727Z,36.03
2018-03-22T23:11:17.476Z,38.80
2018-03-22T23:13:45.128Z,36.97
2018-03-22T23:16:12.815Z,35.27
2018-03-22T23:18:40.531Z,33.60
2018-03-22T23:21:08.205Z,34.13
2018-03-22T23:23:35.884Z,33.43
2018-03-22T23:26:03.549Z,32.50
2018-03-22T23:28:31.345Z,31.50
2018-03-22T23:30:59.025Z,30.80
2018-03-22T23:33:26.685Z,28.97
2018-03-22T23:35:54.549Z,28.17
2018-03-22T23:38:22.231Z,27.13
2018-03-22T23:40:50.013Z,24.70
2018-03-22T23:43:17.665Z,25.37
2018-03-22T23:45:45.493Z,23.57
2018-03-22T23:48:13.156Z,21.23
2018-03-22T23:50:40.841Z,23.50
2018-03-22T23:53:08.635Z,22.50
2018-03-22T23:55:36.518Z,21.97
2018-03-22T23:58:04.179Z,24.10
